HAR NZCH-NZCH
Flight info
| Callsign | HAR |
|---|---|
| Flight time | 0h 3m |
| Altitude | 1500 |
| Route | NZCH NZJJ NZCH |
| Aircraft | H125/L-V/N |
Departure
| Time | 2026-05-08 06:59 |
|---|---|
| Airport | Christchurch International Airport (NZCH) |
Arrival
| Time | 2026-05-08 07:02 |
|---|---|
| Airport | Christchurch International Airport (NZCH) |
| Time | Latitude | Longitude | Altitude | Speed | Heading |
|---|---|---|---|---|---|
| 2026-05-08 06:53 | -43.48306 | 172.52765 | 113 ft | 0 kts | 289° |
| 2026-05-08 06:58 | -43.48306 | 172.52764 | 114 ft | 2 kts | 309° |
| 2026-05-08 06:58 | -43.48320 | 172.52708 | 161 ft | 11 kts | 254° |
| 2026-05-08 06:58 | -43.48395 | 172.52635 | 228 ft | 14 kts | 178° |
| 2026-05-08 06:59 | -43.48531 | 172.52816 | 410 ft | 44 kts | 126° |
| 2026-05-08 06:59 | -43.48708 | 172.53270 | 506 ft | 61 kts | 114° |
| 2026-05-08 06:59 | -43.48907 | 172.53817 | 599 ft | 67 kts | 110° |
| 2026-05-08 06:59 | -43.49153 | 172.54374 | 727 ft | 73 kts | 121° |
| 2026-05-08 07:00 | -43.49405 | 172.54979 | 823 ft | 80 kts | 119° |
| 2026-05-08 07:00 | -43.49686 | 172.55714 | 780 ft | 91 kts | 107° |
| 2026-05-08 07:00 | -43.49998 | 172.56449 | 812 ft | 88 kts | 112° |
| 2026-05-08 07:00 | -43.50388 | 172.57128 | 884 ft | 93 kts | 118° |
| 2026-05-08 07:01 | -43.50869 | 172.57815 | 827 ft | 100 kts | 123° |
| 2026-05-08 07:01 | -43.51395 | 172.58471 | 768 ft | 104 kts | 137° |
| 2026-05-08 07:01 | -43.51972 | 172.59096 | 719 ft | 104 kts | 142° |
| 2026-05-08 07:01 | -43.52529 | 172.59723 | 604 ft | 101 kts | 137° |
| 2026-05-08 07:02 | -43.53008 | 172.60360 | 522 ft | 93 kts | 134° |
| 2026-05-08 07:02 | -43.53441 | 172.60987 | 478 ft | 86 kts | 135° |
| 2026-05-08 07:02 | -43.53749 | 172.61564 | 442 ft | 62 kts | 98° |
| 2026-05-08 07:02 | -43.53675 | 172.62013 | 381 ft | 38 kts | 62° |
| 2026-05-08 07:03 | -43.53525 | 172.62233 | 282 ft | 27 kts | 34° |
| 2026-05-08 07:03 | -43.53410 | 172.62310 | 188 ft | 9 kts | 30° |
| 2026-05-08 07:03 | -43.53365 | 172.62323 | 148 ft | 7 kts | 38° |
| 2026-05-08 07:03 | -43.53331 | 172.62341 | 150 ft | 6 kts | 48° |
| 2026-05-08 07:04 | -43.53308 | 172.62365 | 119 ft | 3 kts | 52° |
| 2026-05-08 07:04 | -43.53297 | 172.62376 | 111 ft | 2 kts | 63° |
| 2026-05-08 07:04 | -43.53296 | 172.62379 | 90 ft | 0 kts | 56° |
| 2026-05-08 07:08 | -43.53295 | 172.62378 | 91 ft | 1 kts | 56° |
| 2026-05-08 07:08 | -43.53290 | 172.62378 | 147 ft | 1 kts | 52° |
| 2026-05-08 07:08 | -43.53241 | 172.62503 | 286 ft | 35 kts | 55° |
| 2026-05-08 07:08 | -43.52968 | 172.62743 | 503 ft | 58 kts | 16° |
| 2026-05-08 07:09 | -43.52551 | 172.62435 | 684 ft | 78 kts | 339° |
| 2026-05-08 07:09 | -43.52184 | 172.61825 | 900 ft | 83 kts | 328° |
| 2026-05-08 07:09 | -43.51908 | 172.61131 | 1097 ft | 85 kts | 320° |
| 2026-05-08 07:09 | -43.51666 | 172.60366 | 1144 ft | 94 kts | 315° |
| 2026-05-08 07:10 | -43.51397 | 172.59490 | 1149 ft | 104 kts | 311° |
| 2026-05-08 07:10 | -43.51141 | 172.58537 | 1112 ft | 108 kts | 310° |
| 2026-05-08 07:10 | -43.50834 | 172.57573 | 1025 ft | 110 kts | 313° |
| 2026-05-08 07:10 | -43.50479 | 172.56632 | 1039 ft | 109 kts | 315° |
| 2026-05-08 07:11 | -43.50165 | 172.55698 | 930 ft | 106 kts | 318° |
| 2026-05-08 07:11 | -43.49880 | 172.54802 | 793 ft | 98 kts | 317° |
| 2026-05-08 07:11 | -43.49551 | 172.54010 | 613 ft | 93 kts | 331° |
| 2026-05-08 07:11 | -43.49153 | 172.53373 | 541 ft | 84 kts | 339° |
| 2026-05-08 07:12 | -43.48797 | 172.52819 | 466 ft | 69 kts | 340° |
| 2026-05-08 07:12 | -43.48532 | 172.52507 | 355 ft | 30 kts | 23° |
| 2026-05-08 07:12 | -43.48426 | 172.52588 | 256 ft | 16 kts | 66° |
| 2026-05-08 07:12 | -43.48392 | 172.52685 | 194 ft | 9 kts | 68° |
| 2026-05-08 07:13 | -43.48363 | 172.52735 | 169 ft | 6 kts | 59° |
| 2026-05-08 07:13 | -43.48339 | 172.52779 | 133 ft | 2 kts | 69° |
| 2026-05-08 07:13 | -43.48331 | 172.52784 | 112 ft | 1 kts | 76° |
| 2026-05-08 07:13 | -43.48330 | 172.52783 | 111 ft | 0 kts | 101° |